createdAt,value
2023-02-27T00:00:01.442Z,4.60
2023-02-27T00:05:00.652Z,4.10
2023-02-27T00:10:00.648Z,3.80
2023-02-27T00:15:00.646Z,5.00
2023-02-27T00:20:00.843Z,4.90
2023-02-27T00:25:00.659Z,5.60
2023-02-27T00:30:00.650Z,4.10
2023-02-27T00:35:01.989Z,3.10
2023-02-27T00:40:01.956Z,3.80
2023-02-27T00:45:00.799Z,2.30
2023-02-27T00:50:00.948Z,3.80
2023-02-27T00:55:00.842Z,2.40
2023-02-27T01:00:01.180Z,3.40
2023-02-27T01:05:00.853Z,4.80
2023-02-27T01:10:00.623Z,4.80
2023-02-27T01:15:00.748Z,3.80
2023-02-27T01:20:00.764Z,5.90
2023-02-27T01:25:00.812Z,2.90
2023-02-27T01:30:01.113Z,2.30
2023-02-27T01:35:00.668Z,2.40
2023-02-27T01:40:00.982Z,4.30
2023-02-27T01:45:07.738Z,4.30
2023-02-27T01:50:00.719Z,4.00
2023-02-27T01:55:02.378Z,5.70
2023-02-27T02:00:02.919Z,3.30
2023-02-27T02:05:01.239Z,2.90
2023-02-27T02:10:01.420Z,3.80
2023-02-27T02:15:01.024Z,4.30
2023-02-27T02:20:20.568Z,2.50
2023-02-27T02:25:20.512Z,3.50
2023-02-27T02:30:20.548Z,6.20
2023-02-27T02:35:20.564Z,3.40
2023-02-27T02:40:10.950Z,3.60
2023-02-27T02:45:09.037Z,2.80
2023-02-27T02:50:13.597Z,3.20
2023-02-27T02:55:11.887Z,4.10
2023-02-27T03:00:09.546Z,4.40
2023-02-27T03:05:08.154Z,2.80
2023-02-27T03:10:04.858Z,3.80
2023-02-27T03:15:07.343Z,5.90
2023-02-27T03:20:05.737Z,4.50
2023-02-27T03:25:06.365Z,4.60
2023-02-27T03:30:14.801Z,5.90
2023-02-27T03:35:03.465Z,1.90
2023-02-27T03:40:20.520Z,4.10
2023-02-27T03:45:18.008Z,2.60
2023-02-27T03:50:00.829Z,3.20
2023-02-27T03:55:08.671Z,3.20
2023-02-27T04:00:03.168Z,4.80
2023-02-27T04:05:00.690Z,3.10
2023-02-27T04:10:10.555Z,4.50
2023-02-27T04:15:16.593Z,3.10
2023-02-27T04:20:16.609Z,4.60
2023-02-27T04:25:03.907Z,2.50
2023-02-27T04:30:19.510Z,3.50
2023-02-27T04:35:07.283Z,3.30
2023-02-27T04:40:07.332Z,3.30
2023-02-27T04:45:04.808Z,4.90
2023-02-27T04:50:08.644Z,4.60
2023-02-27T04:55:10.673Z,2.70
2023-02-27T05:00:05.248Z,3.50
2023-02-27T05:05:05.220Z,4.40
2023-02-27T05:10:06.300Z,2.60
2023-02-27T05:15:09.800Z,3.10
2023-02-27T05:20:01.927Z,3.10
2023-02-27T05:25:13.439Z,5.30
2023-02-27T05:30:14.184Z,2.00
2023-02-27T05:35:10.223Z,2.00
2023-02-27T05:40:04.421Z,3.00
2023-02-27T05:45:08.556Z,3.00
2023-02-27T05:50:05.826Z,4.60
2023-02-27T05:55:05.509Z,2.90
2023-02-27T06:00:14.417Z,4.90
2023-02-27T06:05:00.765Z,4.20
2023-02-27T06:10:01.057Z,4.70
2023-02-27T06:15:00.641Z,3.00
2023-02-27T06:20:00.675Z,2.80
2023-02-27T06:25:00.852Z,2.40
2023-02-27T06:30:00.673Z,4.50
2023-02-27T06:35:00.907Z,5.10
2023-02-27T06:40:00.821Z,4.70
2023-02-27T06:45:00.638Z,3.50
2023-02-27T06:50:00.686Z,3.20
2023-02-27T06:55:00.613Z,3.30
2023-02-27T07:00:03.618Z,4.00
2023-02-27T07:05:00.772Z,7.60
2023-02-27T07:10:00.668Z,4.50
2023-02-27T07:15:00.695Z,5.60
2023-02-27T07:20:00.668Z,6.30
2023-02-27T07:25:00.658Z,7.30
2023-02-27T07:30:00.677Z,8.80
2023-02-27T07:35:00.620Z,4.90
2023-02-27T07:40:00.880Z,4.10
2023-02-27T07:45:00.712Z,10.00
2023-02-27T07:50:00.683Z,4.40
2023-02-27T07:55:00.656Z,4.40
2023-02-27T08:00:02.734Z,7.50
2023-02-27T08:05:00.629Z,11.60
2023-02-27T08:10:00.635Z,5.60
2023-02-27T08:15:00.948Z,7.30
2023-02-27T08:20:00.672Z,4.70
2023-02-27T08:25:00.658Z,3.40
2023-02-27T08:30:00.684Z,4.90
2023-02-27T08:35:00.836Z,3.90
2023-02-27T08:40:00.753Z,2.30
2023-02-27T08:45:00.650Z,3.90
2023-02-27T08:50:00.668Z,3.30
2023-02-27T08:55:00.709Z,4.80
2023-02-27T09:00:01.473Z,4.50
2023-02-27T09:05:00.615Z,3.20
2023-02-27T09:10:00.688Z,2.70
2023-02-27T09:15:00.710Z,3.30
2023-02-27T09:20:00.625Z,4.90
2023-02-27T09:25:00.647Z,1.70
2023-02-27T09:30:00.799Z,2.60
2023-02-27T09:35:00.669Z,3.50
2023-02-27T09:40:00.831Z,2.30
2023-02-27T09:45:06.036Z,2.00
2023-02-27T09:50:05.324Z,2.40
2023-02-27T09:55:01.830Z,4.10
2023-02-27T10:00:10.680Z,3.10
2023-02-27T10:05:13.729Z,2.50
2023-02-27T10:10:11.857Z,2.90
2023-02-27T10:15:14.906Z,4.80
2023-02-27T10:20:05.568Z,2.90
2023-02-27T10:25:08.978Z,2.90
2023-02-27T10:30:29.188Z,4.00
2023-02-27T10:35:20.518Z,3.70
2023-02-27T10:40:02.971Z,3.90
2023-02-27T10:45:01.569Z,2.50
2023-02-27T10:50:00.638Z,3.80
2023-02-27T10:55:16.062Z,2.20
2023-02-27T11:00:04.982Z,2.70
2023-02-27T11:05:01.618Z,3.30
2023-02-27T11:10:13.913Z,2.30
2023-02-27T11:15:12.179Z,5.00
2023-02-27T11:20:02.654Z,2.70
2023-02-27T11:25:19.413Z,2.90
2023-02-27T11:30:06.128Z,3.10
2023-02-27T11:35:01.026Z,1.80
2023-02-27T11:40:11.576Z,2.90
2023-02-27T11:45:05.740Z,1.90
2023-02-27T11:50:13.984Z,3.40
2023-02-27T11:55:03.654Z,1.40
2023-02-27T12:00:07.797Z,1.70
2023-02-27T12:05:20.546Z,1.90
2023-02-27T12:10:00.645Z,0.90
2023-02-27T12:15:12.341Z,2.00
2023-02-27T12:20:20.527Z,1.50
2023-02-27T12:25:04.914Z,1.70
2023-02-27T12:30:06.730Z,1.60
2023-02-27T12:35:14.929Z,2.00
2023-02-27T12:40:02.433Z,1.40
2023-02-27T12:45:15.616Z,0.70
2023-02-27T12:50:13.367Z,1.00
2023-02-27T12:55:14.007Z,4.30
2023-02-27T13:00:12.552Z,0.90
2023-02-27T13:05:13.860Z,1.50
2023-02-27T13:10:06.875Z,2.10
2023-02-27T13:15:03.066Z,1.30
2023-02-27T13:20:20.536Z,0.80
2023-02-27T13:25:08.600Z,7.70
2023-02-27T13:35:12.603Z,2.40
2023-02-27T13:40:00.632Z,1.90
2023-02-27T13:45:03.102Z,2.60
2023-02-27T13:50:13.163Z,2.70
2023-02-27T13:55:11.278Z,1.80
2023-02-27T14:00:05.320Z,1.90
2023-02-27T14:05:05.949Z,1.50
2023-02-27T14:10:06.475Z,2.40
2023-02-27T14:15:03.684Z,2.40
2023-02-27T14:20:03.923Z,1.50
2023-02-27T14:25:11.815Z,1.60
2023-02-27T14:30:05.149Z,2.70
2023-02-27T14:35:03.977Z,4.90
2023-02-27T14:40:03.451Z,3.90
2023-02-27T14:45:01.190Z,2.10
2023-02-27T14:50:02.731Z,1.40
2023-02-27T14:55:15.666Z,2.30
2023-02-27T15:00:01.265Z,2.90
2023-02-27T15:05:00.667Z,1.80
2023-02-27T15:10:05.093Z,2.00
2023-02-27T15:15:03.509Z,1.20
2023-02-27T15:20:00.924Z,1.60
2023-02-27T15:25:00.652Z,3.30
2023-02-27T15:30:01.149Z,1.40
2023-02-27T15:35:04.290Z,2.40
2023-02-27T15:40:01.089Z,2.00
2023-02-27T15:45:01.885Z,3.20
2023-02-27T15:50:10.809Z,3.80
2023-02-27T15:55:05.419Z,7.90
2023-02-27T16:00:01.865Z,4.90
2023-02-27T16:05:00.913Z,3.10
2023-02-27T16:10:06.726Z,4.20
2023-02-27T16:15:20.527Z,4.20
2023-02-27T16:20:11.538Z,6.00
2023-02-27T16:25:15.937Z,3.40
2023-02-27T16:30:00.709Z,4.80
2023-02-27T16:35:04.960Z,3.70
2023-02-27T16:40:00.713Z,2.50
2023-02-27T16:45:00.665Z,5.50
2023-02-27T16:50:00.765Z,2.00
2023-02-27T16:55:00.614Z,3.90
2023-02-27T17:00:04.259Z,8.60
2023-02-27T17:05:00.692Z,4.60
2023-02-27T17:10:00.782Z,4.60
2023-02-27T17:15:00.682Z,3.90
2023-02-27T17:20:00.629Z,4.40
2023-02-27T17:25:00.638Z,7.20
2023-02-27T17:30:00.750Z,3.80
2023-02-27T17:35:00.623Z,5.30
2023-02-27T17:40:00.718Z,4.90
2023-02-27T17:45:00.635Z,2.80
2023-02-27T17:50:00.757Z,4.10
2023-02-27T17:55:00.663Z,5.60
2023-02-27T18:00:02.555Z,4.70
2023-02-27T18:05:01.676Z,4.40
2023-02-27T18:10:00.916Z,5.00
2023-02-27T18:15:01.089Z,4.60
2023-02-27T18:20:00.818Z,1.90
2023-02-27T18:25:00.615Z,2.60
2023-02-27T18:30:00.697Z,3.10
2023-02-27T18:35:00.619Z,4.40
2023-02-27T18:40:00.753Z,3.50
2023-02-27T18:45:00.610Z,3.90
2023-02-27T18:50:00.852Z,2.80
2023-02-27T18:55:00.858Z,8.20
2023-02-27T19:00:01.493Z,6.60
2023-02-27T19:05:00.657Z,5.20
2023-02-27T19:10:00.628Z,4.70
2023-02-27T19:15:00.649Z,7.20
2023-02-27T19:20:00.686Z,4.50
2023-02-27T19:25:00.647Z,5.10
2023-02-27T19:30:00.693Z,4.60
2023-02-27T19:35:00.611Z,5.90
2023-02-27T19:40:00.640Z,10.20
2023-02-27T19:45:00.685Z,8.60
2023-02-27T19:50:00.624Z,8.40
2023-02-27T19:55:00.681Z,6.80
2023-02-27T20:00:01.247Z,9.70
2023-02-27T20:05:00.645Z,10.70
2023-02-27T20:10:00.653Z,12.20
2023-02-27T20:15:00.734Z,12.40
2023-02-27T20:20:00.795Z,10.10
2023-02-27T20:25:00.639Z,5.90
2023-02-27T20:30:00.672Z,18.20
2023-02-27T20:35:00.889Z,15.90
2023-02-27T20:40:01.001Z,16.10
2023-02-27T20:45:00.753Z,14.90
2023-02-27T20:50:00.633Z,9.90
2023-02-27T20:55:00.727Z,7.60
2023-02-27T21:00:02.612Z,8.40
2023-02-27T21:05:00.683Z,9.10
2023-02-27T21:10:00.636Z,9.40
2023-02-27T21:15:00.680Z,16.40
2023-02-27T21:20:00.642Z,18.50
2023-02-27T21:25:02.002Z,17.20
2023-02-27T21:30:00.663Z,14.40
2023-02-27T21:35:00.630Z,13.30
2023-02-27T21:40:00.655Z,8.20
2023-02-27T21:45:00.670Z,7.30
2023-02-27T21:50:01.655Z,9.80
2023-02-27T21:55:00.614Z,9.80
2023-02-27T22:00:01.625Z,8.10
2023-02-27T22:05:00.616Z,7.20
2023-02-27T22:10:00.620Z,5.80
2023-02-27T22:15:00.702Z,6.40
2023-02-27T22:20:00.622Z,8.10
2023-02-27T22:25:00.727Z,5.80
2023-02-27T22:30:00.665Z,5.90
2023-02-27T22:35:00.766Z,8.20
2023-02-27T22:40:00.670Z,6.20
2023-02-27T22:45:00.627Z,5.70
2023-02-27T22:50:01.043Z,5.40
2023-02-27T22:55:00.696Z,6.70
2023-02-27T23:00:01.693Z,6.70
2023-02-27T23:05:00.617Z,5.90
2023-02-27T23:10:00.687Z,6.40
2023-02-27T23:15:01.149Z,4.00
2023-02-27T23:20:00.651Z,5.50
2023-02-27T23:25:00.617Z,2.90
2023-02-27T23:30:00.670Z,6.20
2023-02-27T23:35:00.616Z,2.90
2023-02-27T23:40:00.609Z,3.70
2023-02-27T23:45:00.675Z,5.80
2023-02-27T23:50:00.601Z,4.30
2023-02-27T23:55:00.841Z,3.20
